createdAt,value
2018-04-07T00:00:53.467Z,4.00
2018-04-07T00:01:53.450Z,4.00
2018-04-07T00:02:53.421Z,4.00
2018-04-07T00:03:53.386Z,4.00
2018-04-07T00:04:53.417Z,4.00
2018-04-07T00:05:53.450Z,0.00
2018-04-07T00:06:53.324Z,0.00
2018-04-07T00:07:53.297Z,0.00
2018-04-07T00:08:53.281Z,0.00
2018-04-07T00:09:53.269Z,0.00
2018-04-07T00:10:53.314Z,0.00
2018-04-07T00:11:53.271Z,0.00
2018-04-07T00:12:53.193Z,0.00
2018-04-07T00:13:53.154Z,0.00
2018-04-07T00:14:53.367Z,0.00
2018-04-07T00:15:53.108Z,0.00
2018-04-07T00:16:53.108Z,0.00
2018-04-07T00:17:53.055Z,0.00
2018-04-07T00:18:53.020Z,0.00
2018-04-07T00:19:52.999Z,0.00
2018-04-07T00:20:53.149Z,0.00
2018-04-07T00:21:52.955Z,0.00
2018-04-07T00:22:52.935Z,0.00
2018-04-07T00:23:52.899Z,0.00
2018-04-07T00:24:52.890Z,0.00
2018-04-07T00:25:52.917Z,0.00
2018-04-07T00:26:52.929Z,0.00
2018-04-07T00:27:52.816Z,0.00
2018-04-07T00:28:52.801Z,0.00
2018-04-07T00:29:52.766Z,0.00
2018-04-07T00:30:52.747Z,0.00
2018-04-07T00:31:52.832Z,0.00
2018-04-07T00:32:52.683Z,0.00
2018-04-07T00:33:52.658Z,0.00
2018-04-07T00:34:52.622Z,0.00
2018-04-07T00:35:52.835Z,0.00
2018-04-07T00:36:52.725Z,0.00
2018-04-07T00:37:52.555Z,0.00
2018-04-07T00:38:52.538Z,0.00
2018-04-07T00:39:52.519Z,0.00
2018-04-07T00:40:52.479Z,0.00
2018-04-07T00:41:52.490Z,0.00
2018-04-07T00:42:52.510Z,0.00
2018-04-07T00:43:52.402Z,0.00
2018-04-07T00:44:52.371Z,0.00
2018-04-07T00:45:52.348Z,0.00
2018-04-07T00:46:52.335Z,0.00
2018-04-07T00:47:52.357Z,0.00
2018-04-07T00:48:52.268Z,0.00
2018-04-07T00:49:52.246Z,0.00
2018-04-07T00:50:52.216Z,0.00
2018-04-07T00:51:52.222Z,0.00
2018-04-07T00:52:52.181Z,0.00
2018-04-07T00:53:52.150Z,0.00
2018-04-07T00:54:52.113Z,0.00
2018-04-07T00:55:52.103Z,0.00
2018-04-07T00:56:52.087Z,0.00
2018-04-07T00:57:52.147Z,0.00
2018-04-07T00:58:52.024Z,0.00
2018-04-07T00:59:51.996Z,0.00
2018-04-07T01:00:51.966Z,0.00
2018-04-07T01:01:51.934Z,0.00
2018-04-07T01:02:52.108Z,0.00
2018-04-07T01:03:51.884Z,0.00
2018-04-07T01:04:51.858Z,0.00
2018-04-07T01:05:52.373Z,0.00
2018-04-07T01:06:51.835Z,0.00
2018-04-07T01:07:51.890Z,0.00
2018-04-07T01:08:51.766Z,0.00
2018-04-07T01:09:51.739Z,0.00
2018-04-07T01:10:51.700Z,0.00
2018-04-07T01:11:51.762Z,0.00
2018-04-07T01:12:51.892Z,0.00
2018-04-07T01:13:51.810Z,0.00
2018-04-07T01:14:51.694Z,0.00
2018-04-07T01:15:51.659Z,0.00
2018-04-07T01:16:51.613Z,0.00
2018-04-07T01:17:51.699Z,0.00
2018-04-07T01:18:51.584Z,0.00
2018-04-07T01:19:52.152Z,0.00
2018-04-07T01:20:51.960Z,0.00
2018-04-07T01:21:51.437Z,0.00
2018-04-07T01:22:51.416Z,0.00
2018-04-07T01:23:51.524Z,0.00
2018-04-07T01:24:51.335Z,0.00
2018-04-07T01:25:51.331Z,0.00
2018-04-07T01:26:51.304Z,0.00
2018-04-07T01:27:51.294Z,0.00
2018-04-07T01:28:51.253Z,0.00
2018-04-07T01:29:51.324Z,0.00
2018-04-07T01:30:51.746Z,0.00
2018-04-07T01:31:51.164Z,0.00
2018-04-07T01:32:51.144Z,0.00
2018-04-07T01:33:51.116Z,0.00
2018-04-07T01:34:51.142Z,0.00
2018-04-07T01:35:51.175Z,0.00
2018-04-07T01:36:51.042Z,0.00
2018-04-07T01:37:51.024Z,0.00
2018-04-07T01:38:50.993Z,0.00
2018-04-07T01:39:50.955Z,0.00
2018-04-07T01:40:51.055Z,0.00
2018-04-07T01:41:50.941Z,0.00
2018-04-07T01:42:50.873Z,0.00
2018-04-07T01:43:50.873Z,0.00
2018-04-07T01:44:50.859Z,0.00
2018-04-07T01:45:50.912Z,0.00
2018-04-07T01:46:50.817Z,0.00
2018-04-07T01:47:50.739Z,0.00
2018-04-07T01:48:50.755Z,0.00
2018-04-07T01:49:50.716Z,0.00
2018-04-07T01:50:50.767Z,0.00
2018-04-07T01:51:50.647Z,0.00
2018-04-07T01:52:50.601Z,0.00
2018-04-07T01:53:50.584Z,0.00
2018-04-07T01:54:50.576Z,0.00
2018-04-07T01:55:50.723Z,0.00
2018-04-07T01:56:50.520Z,0.00
2018-04-07T01:57:50.481Z,0.00
2018-04-07T01:58:50.465Z,0.00
2018-04-07T01:59:50.477Z,0.00
2018-04-07T02:00:50.529Z,0.00
2018-04-07T02:01:50.480Z,0.00
2018-04-07T02:02:50.411Z,0.00
2018-04-07T02:03:50.359Z,0.00
2018-04-07T02:04:50.329Z,0.00
2018-04-07T02:05:50.344Z,0.00
2018-04-07T02:06:50.294Z,0.00
2018-04-07T02:07:50.268Z,0.00
2018-04-07T02:08:50.203Z,0.00
2018-04-07T02:09:50.244Z,0.00
2018-04-07T02:10:50.214Z,0.00
2018-04-07T02:11:50.255Z,0.00
2018-04-07T02:12:50.090Z,0.00
2018-04-07T02:13:50.080Z,0.00
2018-04-07T02:14:50.055Z,0.00
2018-04-07T02:15:49.994Z,0.00
2018-04-07T02:16:50.085Z,0.00
2018-04-07T02:17:49.979Z,0.00
2018-04-07T02:18:49.954Z,0.00
2018-04-07T02:19:49.896Z,0.00
2018-04-07T02:20:49.868Z,0.00
2018-04-07T02:21:49.976Z,0.00
2018-04-07T02:22:49.836Z,0.00
2018-04-07T02:23:50.028Z,0.00
2018-04-07T02:24:49.804Z,0.00
2018-04-07T02:25:50.152Z,0.00
2018-04-07T02:26:49.836Z,0.00
2018-04-07T02:27:49.747Z,0.00
2018-04-07T02:28:49.686Z,0.00
2018-04-07T02:29:49.706Z,0.00
2018-04-07T02:30:50.235Z,0.00
2018-04-07T02:31:50.269Z,0.00
2018-04-07T02:32:49.609Z,0.00
2018-04-07T02:33:49.545Z,0.00
2018-04-07T02:34:50.072Z,0.00
2018-04-07T02:35:49.483Z,0.00
2018-04-07T02:36:49.919Z,0.00
2018-04-07T02:37:49.548Z,0.00
2018-04-07T02:38:49.420Z,0.00
2018-04-07T02:39:49.365Z,0.00
2018-04-07T02:40:49.379Z,0.00
2018-04-07T02:41:49.335Z,0.00
2018-04-07T02:42:49.290Z,0.00
2018-04-07T02:43:49.367Z,0.00
2018-04-07T02:44:49.265Z,0.00
2018-04-07T02:45:49.225Z,0.00
2018-04-07T02:46:49.178Z,0.00
2018-04-07T02:47:49.161Z,0.00
2018-04-07T02:48:49.250Z,0.00
2018-04-07T02:49:49.114Z,0.00
2018-04-07T02:50:49.097Z,0.00
2018-04-07T02:51:49.059Z,0.00
2018-04-07T02:52:49.043Z,0.00
2018-04-07T02:53:49.117Z,0.00
2018-04-07T02:54:49.531Z,0.00
2018-04-07T02:55:48.975Z,0.00
2018-04-07T02:56:48.936Z,0.00
2018-04-07T02:57:48.892Z,0.00
2018-04-07T02:58:48.977Z,0.00
2018-04-07T02:59:48.885Z,0.00
2018-04-07T03:00:48.848Z,0.00
2018-04-07T03:01:48.837Z,0.00
2018-04-07T03:02:49.282Z,0.00
2018-04-07T03:03:48.849Z,0.00
2018-04-07T03:04:48.744Z,0.00
2018-04-07T03:05:48.696Z,0.00
2018-04-07T03:06:48.676Z,0.00
2018-04-07T03:07:48.634Z,0.00
2018-04-07T03:08:48.770Z,0.00
2018-04-07T03:09:48.591Z,0.00
2018-04-07T03:10:48.545Z,0.00
2018-04-07T03:11:48.532Z,0.00
2018-04-07T03:12:48.514Z,0.00
2018-04-07T03:13:48.469Z,0.00
2018-04-07T03:14:48.535Z,0.00
2018-04-07T03:15:48.925Z,0.00
2018-04-07T03:16:48.397Z,0.00
2018-04-07T03:17:48.433Z,0.00
2018-04-07T03:18:48.347Z,0.00
2018-04-07T03:19:48.346Z,0.00
2018-04-07T03:20:48.434Z,0.00
2018-04-07T03:21:48.248Z,0.00
2018-04-07T03:22:48.211Z,0.00
2018-04-07T03:23:48.228Z,0.00
2018-04-07T03:24:48.182Z,0.00
2018-04-07T03:25:48.264Z,0.00
2018-04-07T03:26:48.112Z,0.00
2018-04-07T03:27:48.102Z,0.00
2018-04-07T03:28:48.071Z,0.00
2018-04-07T03:29:48.049Z,0.00
2018-04-07T03:30:48.108Z,0.00
2018-04-07T03:31:47.994Z,0.00
2018-04-07T03:32:47.966Z,0.00
2018-04-07T03:33:48.477Z,0.00
2018-04-07T03:34:47.985Z,0.00
2018-04-07T03:35:47.979Z,0.00
2018-04-07T03:36:47.851Z,0.00
2018-04-07T03:37:47.830Z,0.00
2018-04-07T03:38:47.872Z,0.00
2018-04-07T03:39:47.785Z,0.00
2018-04-07T03:40:47.886Z,0.00
2018-04-07T03:41:47.725Z,0.00
2018-04-07T03:42:47.688Z,0.00
2018-04-07T03:43:47.773Z,0.00
2018-04-07T03:44:47.699Z,0.00
2018-04-07T03:45:47.782Z,0.00
2018-04-07T03:46:47.620Z,0.00
2018-04-07T03:47:47.566Z,0.00
2018-04-07T03:48:47.631Z,0.00
2018-04-07T03:49:47.597Z,0.00
2018-04-07T03:50:47.526Z,0.00
2018-04-07T03:51:47.945Z,0.00
2018-04-07T03:52:47.449Z,0.00
2018-04-07T03:53:47.439Z,0.00
2018-04-07T03:54:47.389Z,0.00
2018-04-07T03:55:47.339Z,0.00
2018-04-07T03:56:47.328Z,0.00
2018-04-07T03:57:47.479Z,0.00
2018-04-07T03:58:47.821Z,0.00
2018-04-07T03:59:47.240Z,0.00
2018-04-07T04:00:47.282Z,0.00
2018-04-07T04:01:47.198Z,0.00
2018-04-07T04:02:47.275Z,0.00
2018-04-07T04:03:47.200Z,0.00
2018-04-07T04:04:47.110Z,0.00
2018-04-07T04:05:47.097Z,0.00
2018-04-07T04:06:47.057Z,0.00
2018-04-07T04:07:47.141Z,0.00
2018-04-07T04:08:47.129Z,0.00
2018-04-07T04:09:47.005Z,0.00
2018-04-07T04:10:46.989Z,0.00
2018-04-07T04:11:46.975Z,0.00
2018-04-07T04:12:47.062Z,0.00
2018-04-07T04:13:46.886Z,0.00
2018-04-07T04:14:46.868Z,0.00
2018-04-07T04:15:46.884Z,0.00
2018-04-07T04:16:46.791Z,0.00
2018-04-07T04:17:47.057Z,0.00
2018-04-07T04:18:46.753Z,0.00
2018-04-07T04:19:46.699Z,0.00
2018-04-07T04:20:46.655Z,0.00
2018-04-07T04:21:46.765Z,0.00
2018-04-07T04:22:46.689Z,0.00
2018-04-07T04:23:46.714Z,0.00
2018-04-07T04:24:46.569Z,0.00
2018-04-07T04:25:46.592Z,0.00
2018-04-07T04:26:46.523Z,0.00
2018-04-07T04:27:46.480Z,0.00
2018-04-07T04:28:46.471Z,0.00
2018-04-07T04:29:46.536Z,0.00
2018-04-07T04:30:46.404Z,0.00
2018-04-07T04:31:46.388Z,0.00
2018-04-07T04:32:46.353Z,0.00
2018-04-07T04:33:46.317Z,0.00
2018-04-07T04:34:46.408Z,0.00
2018-04-07T04:35:46.332Z,0.00
2018-04-07T04:36:46.282Z,0.00
2018-04-07T04:37:46.217Z,0.00
2018-04-07T04:38:46.266Z,0.00
2018-04-07T04:39:46.161Z,0.00
2018-04-07T04:40:46.179Z,0.00
2018-04-07T04:41:46.101Z,0.00
2018-04-07T04:42:46.112Z,0.00
2018-04-07T04:43:46.045Z,0.00
2018-04-07T04:44:46.020Z,0.00
2018-04-07T04:45:46.105Z,0.00
2018-04-07T04:46:45.985Z,0.00
2018-04-07T04:47:45.937Z,0.00
2018-04-07T04:48:45.957Z,0.00
2018-04-07T04:49:45.880Z,0.00
2018-04-07T04:50:45.983Z,0.00
2018-04-07T04:51:45.842Z,0.00
2018-04-07T04:52:45.809Z,0.00
2018-04-07T04:53:45.788Z,0.00
2018-04-07T04:54:45.739Z,0.00
2018-04-07T04:55:45.711Z,0.00
2018-04-07T04:56:45.825Z,0.00
2018-04-07T04:57:45.692Z,0.00
2018-04-07T04:58:45.641Z,0.00
2018-04-07T04:59:45.656Z,0.00
2018-04-07T05:00:45.594Z,0.00
2018-04-07T05:01:45.611Z,0.00
2018-04-07T05:02:45.523Z,0.00
2018-04-07T05:03:45.517Z,0.00
2018-04-07T05:04:45.482Z,0.00
2018-04-07T05:05:45.450Z,0.00
2018-04-07T05:06:45.536Z,0.00
2018-04-07T05:07:45.390Z,0.00
2018-04-07T05:08:45.405Z,0.00
2018-04-07T05:09:45.347Z,0.00
2018-04-07T05:10:45.296Z,0.00
2018-04-07T05:11:45.275Z,0.00
2018-04-07T05:12:45.245Z,0.00
2018-04-07T05:13:45.362Z,0.00
2018-04-07T05:14:45.218Z,0.00
2018-04-07T05:15:45.183Z,0.00
2018-04-07T05:16:45.143Z,0.00
2018-04-07T05:17:45.182Z,0.00
2018-04-07T05:18:45.132Z,0.00
2018-04-07T05:19:45.054Z,0.00
2018-04-07T05:20:45.027Z,0.00
2018-04-07T05:21:45.016Z,0.00
2018-04-07T05:22:45.105Z,0.00
2018-04-07T05:23:45.020Z,0.00
2018-04-07T05:24:44.938Z,0.00
2018-04-07T05:25:44.915Z,0.00
2018-04-07T05:26:44.871Z,0.00
2018-04-07T05:27:44.953Z,0.00
2018-04-07T05:28:44.811Z,0.00
2018-04-07T05:29:44.837Z,0.00
2018-04-07T05:30:44.779Z,0.00
2018-04-07T05:31:44.743Z,0.00
2018-04-07T05:32:44.749Z,0.00
2018-04-07T05:33:44.670Z,0.00
2018-04-07T05:34:44.657Z,0.00
2018-04-07T05:35:44.648Z,0.00
2018-04-07T05:36:44.608Z,0.00
2018-04-07T05:37:44.561Z,0.00
2018-04-07T05:38:44.558Z,0.00
2018-04-07T05:39:44.527Z,0.00
2018-04-07T05:40:44.525Z,0.00
2018-04-07T05:41:44.454Z,0.00
2018-04-07T05:42:44.449Z,0.00
2018-04-07T05:43:44.516Z,0.00
2018-04-07T05:44:44.362Z,0.00
2018-04-07T05:45:44.357Z,0.00
2018-04-07T05:46:44.313Z,0.00
2018-04-07T05:47:44.309Z,0.00
2018-04-07T05:48:44.270Z,0.00
2018-04-07T05:49:44.300Z,0.00
2018-04-07T05:50:44.207Z,0.00
2018-04-07T05:51:44.175Z,0.00
2018-04-07T05:52:44.170Z,0.00
2018-04-07T05:53:44.115Z,0.00
2018-04-07T05:54:44.139Z,0.00
2018-04-07T05:55:44.072Z,0.00
2018-04-07T05:56:44.045Z,0.00
2018-04-07T05:57:44.006Z,0.00
2018-04-07T05:58:43.978Z,0.00
2018-04-07T05:59:44.058Z,0.00
2018-04-07T06:00:43.953Z,0.00
2018-04-07T06:01:43.915Z,0.00
2018-04-07T06:02:43.894Z,0.00
2018-04-07T06:03:43.852Z,0.00
2018-04-07T06:04:43.820Z,0.00
2018-04-07T06:05:43.865Z,0.00
2018-04-07T06:06:43.809Z,0.00
2018-04-07T06:07:43.753Z,0.00
2018-04-07T06:08:43.709Z,0.00
2018-04-07T06:09:43.698Z,0.00
2018-04-07T06:10:43.775Z,0.00
2018-04-07T06:11:43.619Z,0.00
2018-04-07T06:12:43.611Z,0.00
2018-04-07T06:13:43.586Z,0.00
2018-04-07T06:14:43.541Z,0.00
2018-04-07T06:15:43.587Z,0.00
2018-04-07T06:16:43.502Z,0.00
2018-04-07T06:17:43.466Z,0.00
2018-04-07T06:18:43.448Z,0.00
2018-04-07T06:19:43.411Z,0.00
2018-04-07T06:20:43.497Z,0.00
2018-04-07T06:21:43.358Z,0.00
2018-04-07T06:22:43.329Z,0.00
2018-04-07T06:23:43.317Z,0.00
2018-04-07T06:24:43.289Z,0.00
2018-04-07T06:25:43.249Z,0.00
2018-04-07T06:26:43.214Z,0.00
2018-04-07T06:27:43.210Z,0.00
2018-04-07T06:28:43.169Z,0.00
2018-04-07T06:29:43.149Z,0.00
2018-04-07T06:30:43.172Z,0.00
2018-04-07T06:31:43.088Z,0.00
2018-04-07T06:32:43.043Z,0.00
2018-04-07T06:33:43.031Z,0.00
2018-04-07T06:34:43.000Z,0.00
2018-04-07T06:35:42.971Z,0.00
2018-04-07T06:36:43.040Z,0.00
2018-04-07T06:37:42.910Z,0.00
2018-04-07T06:38:42.901Z,0.00
2018-04-07T06:39:42.862Z,0.00
2018-04-07T06:40:42.826Z,0.00
2018-04-07T06:41:42.868Z,0.00
2018-04-07T06:42:42.816Z,0.00
2018-04-07T06:43:42.743Z,0.00
2018-04-07T06:44:42.732Z,0.00
2018-04-07T06:45:42.703Z,0.00
2018-04-07T06:46:42.696Z,0.00
2018-04-07T06:47:42.677Z,0.00
2018-04-07T06:48:42.675Z,0.00
2018-04-07T06:49:42.594Z,0.00
2018-04-07T06:50:42.557Z,0.00
2018-04-07T06:51:42.645Z,0.00
2018-04-07T06:52:42.599Z,0.00
2018-04-07T06:53:42.486Z,0.00
2018-04-07T06:54:42.449Z,0.00
2018-04-07T06:55:42.426Z,0.00
2018-04-07T06:56:42.401Z,0.00
2018-04-07T06:57:42.375Z,0.00
2018-04-07T06:58:42.389Z,0.00
2018-04-07T06:59:42.325Z,0.00
2018-04-07T07:00:42.295Z,0.00
2018-04-07T07:01:42.258Z,0.00
2018-04-07T07:02:42.253Z,0.00
2018-04-07T07:03:42.280Z,0.00
2018-04-07T07:04:42.171Z,0.00
2018-04-07T07:05:42.164Z,0.00
2018-04-07T07:06:42.140Z,0.00
2018-04-07T07:07:42.109Z,0.00
2018-04-07T07:08:42.125Z,0.00
2018-04-07T07:09:42.044Z,0.00
2018-04-07T07:10:42.028Z,0.00
2018-04-07T07:11:42.001Z,0.00
2018-04-07T07:12:41.973Z,0.00
2018-04-07T07:13:42.015Z,0.00
2018-04-07T07:14:41.962Z,0.00
2018-04-07T07:15:41.885Z,0.00
2018-04-07T07:16:41.856Z,0.00
2018-04-07T07:17:41.809Z,0.00
2018-04-07T07:18:41.952Z,0.00
2018-04-07T07:19:41.788Z,0.00
2018-04-07T07:20:41.747Z,0.00
2018-04-07T07:21:41.724Z,0.00
2018-04-07T07:22:41.718Z,0.00
2018-04-07T07:23:41.760Z,0.00
2018-04-07T07:24:41.639Z,0.00
2018-04-07T07:25:41.613Z,0.00
2018-04-07T07:26:41.577Z,0.00
2018-04-07T07:27:41.538Z,0.00
2018-04-07T07:28:41.635Z,0.00
2018-04-07T07:29:41.514Z,0.00
2018-04-07T07:30:41.502Z,0.00
2018-04-07T07:31:41.429Z,0.00
2018-04-07T07:32:41.425Z,0.00
2018-04-07T07:33:41.400Z,0.00
2018-04-07T07:34:41.467Z,0.00
2018-04-07T07:35:41.320Z,0.00
2018-04-07T07:36:41.357Z,0.00
2018-04-07T07:37:41.290Z,0.00
2018-04-07T07:38:41.282Z,0.00
2018-04-07T07:39:41.311Z,0.00
2018-04-07T07:40:41.238Z,0.00
2018-04-07T07:41:41.185Z,0.00
2018-04-07T07:42:41.175Z,0.00
2018-04-07T07:43:41.170Z,0.00
2018-04-07T07:44:41.142Z,0.00
2018-04-07T07:45:41.152Z,0.00
2018-04-07T07:46:41.037Z,0.00
2018-04-07T07:47:41.037Z,0.00
2018-04-07T07:48:40.963Z,0.00
2018-04-07T07:49:40.938Z,0.00
2018-04-07T07:50:41.103Z,0.00
2018-04-07T07:51:40.895Z,0.00
2018-04-07T07:52:40.864Z,0.00
2018-04-07T07:53:40.841Z,0.00
2018-04-07T07:54:40.812Z,0.00
2018-04-07T07:55:40.865Z,0.00
2018-04-07T07:56:40.746Z,0.00
2018-04-07T07:57:40.743Z,0.00
2018-04-07T07:58:40.715Z,0.00
2018-04-07T07:59:40.684Z,0.00
2018-04-07T08:00:40.771Z,0.00
2018-04-07T08:01:40.659Z,0.00
2018-04-07T08:02:40.593Z,0.00
2018-04-07T08:03:40.567Z,0.00
2018-04-07T08:04:40.537Z,0.00
2018-04-07T08:05:40.650Z,0.00
2018-04-07T08:06:40.499Z,0.00
2018-04-07T08:07:40.477Z,0.00
2018-04-07T08:08:40.430Z,0.00
2018-04-07T08:09:40.403Z,0.00
2018-04-07T08:10:40.378Z,0.00
2018-04-07T08:11:40.473Z,0.00
2018-04-07T08:12:40.345Z,0.00
2018-04-07T08:13:40.279Z,0.00
2018-04-07T08:14:40.292Z,0.00
2018-04-07T08:15:40.244Z,0.00
2018-04-07T08:16:40.249Z,0.00
2018-04-07T08:17:40.315Z,0.00
2018-04-07T08:18:40.151Z,0.00
2018-04-07T08:19:40.118Z,0.00
2018-04-07T08:20:40.268Z,0.00
2018-04-07T08:21:40.176Z,0.00
2018-04-07T08:22:40.092Z,0.00
2018-04-07T08:23:40.000Z,0.00
2018-04-07T08:24:40.002Z,0.00
2018-04-07T08:25:39.995Z,0.00
2018-04-07T08:26:39.923Z,0.00
2018-04-07T08:27:40.001Z,0.00
2018-04-07T08:28:39.907Z,0.00
2018-04-07T08:29:39.833Z,0.00
2018-04-07T08:30:39.822Z,0.00
2018-04-07T08:31:39.793Z,0.00
2018-04-07T08:32:39.880Z,0.00
2018-04-07T08:33:39.771Z,0.00
2018-04-07T08:34:39.720Z,0.00
2018-04-07T08:35:39.676Z,0.00
2018-04-07T08:36:40.266Z,0.00
2018-04-07T08:37:39.741Z,0.00
2018-04-07T08:38:39.610Z,0.00
2018-04-07T08:39:39.571Z,0.00
2018-04-07T08:40:39.537Z,0.00
2018-04-07T08:41:39.536Z,0.00
2018-04-07T08:42:39.492Z,0.00
2018-04-07T08:43:39.494Z,0.00
2018-04-07T08:44:39.440Z,0.00
2018-04-07T08:45:39.431Z,0.00
2018-04-07T08:46:39.392Z,0.00
2018-04-07T08:47:39.337Z,0.00
2018-04-07T08:48:39.435Z,0.00
2018-04-07T08:49:39.303Z,0.00
2018-04-07T08:50:39.272Z,0.00
2018-04-07T08:51:39.270Z,0.00
2018-04-07T08:52:39.224Z,0.00
2018-04-07T08:53:39.247Z,0.00
2018-04-07T08:54:39.224Z,0.00
2018-04-07T08:55:39.142Z,0.00
2018-04-07T08:56:39.163Z,0.00
2018-04-07T08:57:39.091Z,0.00
2018-04-07T08:58:39.082Z,0.00
2018-04-07T08:59:39.069Z,0.00
2018-04-07T09:00:38.989Z,0.00
2018-04-07T09:01:38.969Z,0.00
2018-04-07T09:02:38.962Z,0.00
2018-04-07T09:03:38.927Z,0.00
2018-04-07T09:04:38.982Z,0.00
2018-04-07T09:05:38.851Z,0.00
2018-04-07T09:06:38.843Z,0.00
2018-04-07T09:07:38.807Z,0.00
2018-04-07T09:08:38.771Z,0.00
2018-04-07T09:09:38.841Z,0.00
2018-04-07T09:10:38.734Z,0.00
2018-04-07T09:11:38.685Z,0.00
2018-04-07T09:12:38.672Z,0.00
2018-04-07T09:13:38.650Z,0.00
2018-04-07T09:14:38.728Z,0.00
2018-04-07T09:15:38.634Z,0.00
2018-04-07T09:16:38.597Z,0.00
2018-04-07T09:17:38.550Z,0.00
2018-04-07T09:18:38.605Z,0.00
2018-04-07T09:19:38.574Z,0.00
2018-04-07T09:20:38.459Z,0.00
2018-04-07T09:21:38.448Z,0.00
2018-04-07T09:22:38.385Z,0.00
2018-04-07T09:23:38.355Z,0.00
2018-04-07T09:24:38.345Z,0.00
2018-04-07T09:25:38.428Z,0.00
2018-04-07T09:26:38.313Z,0.00
2018-04-07T09:27:38.244Z,0.00
2018-04-07T09:28:38.218Z,0.00
2018-04-07T09:29:38.201Z,0.00
2018-04-07T09:30:38.302Z,0.00
2018-04-07T09:31:38.163Z,0.00
2018-04-07T09:32:38.112Z,0.00
2018-04-07T09:33:38.087Z,0.00
2018-04-07T09:34:38.072Z,0.00
2018-04-07T09:35:38.182Z,0.00
2018-04-07T09:36:38.025Z,0.00
2018-04-07T09:37:37.990Z,0.00
2018-04-07T09:38:37.940Z,0.00
2018-04-07T09:39:37.950Z,0.00
2018-04-07T09:40:38.014Z,0.00
2018-04-07T09:41:37.863Z,0.00
2018-04-07T09:42:37.872Z,0.00
2018-04-07T09:43:37.816Z,0.00
2018-04-07T09:44:37.796Z,0.00
2018-04-07T09:45:37.875Z,0.00
2018-04-07T09:46:37.775Z,0.00
2018-04-07T09:47:37.707Z,0.00
2018-04-07T09:48:37.662Z,0.00
2018-04-07T09:49:37.680Z,0.00
2018-04-07T09:50:37.739Z,0.00
2018-04-07T09:51:37.615Z,0.00
2018-04-07T09:52:37.578Z,0.00
2018-04-07T09:53:37.528Z,0.00
2018-04-07T09:54:37.512Z,0.00
2018-04-07T09:55:37.498Z,0.00
2018-04-07T09:56:37.597Z,0.00
2018-04-07T09:57:37.423Z,0.00
2018-04-07T09:58:37.439Z,0.00
2018-04-07T09:59:37.361Z,0.00
2018-04-07T10:00:37.359Z,0.00
2018-04-07T10:01:37.331Z,0.00
2018-04-07T10:02:37.391Z,0.00
2018-04-07T10:03:37.266Z,0.00
2018-04-07T10:04:37.257Z,0.00
2018-04-07T10:05:37.210Z,0.00
2018-04-07T10:06:37.166Z,0.00
2018-04-07T10:07:37.269Z,0.00
2018-04-07T10:08:37.141Z,0.00
2018-04-07T10:09:37.104Z,0.00
2018-04-07T10:10:37.073Z,0.00
2018-04-07T10:11:37.046Z,0.00
2018-04-07T10:12:37.112Z,0.00
2018-04-07T10:13:36.987Z,0.00
2018-04-07T10:14:36.948Z,0.00
2018-04-07T10:15:36.963Z,0.00
2018-04-07T10:16:36.899Z,0.00
2018-04-07T10:17:36.985Z,0.00
2018-04-07T10:18:36.838Z,0.00
2018-04-07T10:19:36.827Z,0.00
2018-04-07T10:20:36.828Z,0.00
2018-04-07T10:21:36.782Z,0.00
2018-04-07T10:22:36.829Z,0.00
2018-04-07T10:23:36.714Z,0.00
2018-04-07T10:24:36.696Z,0.00
2018-04-07T10:25:36.666Z,0.00
2018-04-07T10:26:36.676Z,0.00
2018-04-07T10:27:36.707Z,0.00
2018-04-07T10:28:36.582Z,0.00
2018-04-07T10:29:36.556Z,0.00
2018-04-07T10:30:36.520Z,0.00
2018-04-07T10:31:36.508Z,0.00
2018-04-07T10:32:36.486Z,0.00
2018-04-07T10:33:36.563Z,0.00
2018-04-07T10:34:36.401Z,0.00
2018-04-07T10:35:36.383Z,0.00
2018-04-07T10:36:36.358Z,0.00
2018-04-07T10:37:36.311Z,0.00
2018-04-07T10:38:36.293Z,0.00
2018-04-07T10:39:36.422Z,0.00
2018-04-07T10:40:36.290Z,0.00
2018-04-07T10:41:36.235Z,0.00
2018-04-07T10:42:36.206Z,0.00
2018-04-07T10:43:36.158Z,0.00
2018-04-07T10:44:36.248Z,0.00
2018-04-07T10:45:36.122Z,0.00
2018-04-07T10:46:36.103Z,0.00
2018-04-07T10:47:36.052Z,0.00
2018-04-07T10:48:36.019Z,0.00
2018-04-07T10:49:36.084Z,0.00
2018-04-07T10:50:35.966Z,0.00
2018-04-07T10:51:35.968Z,0.00
2018-04-07T10:52:35.985Z,0.00
2018-04-07T10:53:35.906Z,0.00
2018-04-07T10:54:35.977Z,0.00
2018-04-07T10:55:35.853Z,0.00
2018-04-07T10:56:35.802Z,0.00
2018-04-07T10:57:35.818Z,0.00
2018-04-07T10:58:35.757Z,0.00
2018-04-07T10:59:35.810Z,0.00
2018-04-07T11:00:35.679Z,0.00
2018-04-07T11:01:35.665Z,0.00
2018-04-07T11:02:35.655Z,0.00
2018-04-07T11:03:35.652Z,0.00
2018-04-07T11:04:35.644Z,0.00
2018-04-07T11:05:35.639Z,0.00
2018-04-07T11:06:35.535Z,0.00
2018-04-07T11:07:35.499Z,0.00
2018-04-07T11:08:35.501Z,0.00
2018-04-07T11:09:35.445Z,0.00
2018-04-07T11:10:35.411Z,0.00
2018-04-07T11:11:35.479Z,0.00
2018-04-07T11:12:35.368Z,0.00
2018-04-07T11:13:35.331Z,0.00
2018-04-07T11:14:35.291Z,0.00
2018-04-07T11:15:35.283Z,0.00
2018-04-07T11:16:35.369Z,0.00
2018-04-07T11:17:35.229Z,0.00
2018-04-07T11:18:35.211Z,0.00
2018-04-07T11:19:35.182Z,0.00
2018-04-07T11:20:35.141Z,0.00
2018-04-07T11:21:35.242Z,0.00
2018-04-07T11:22:35.121Z,4.00
2018-04-07T11:23:35.079Z,0.00
2018-04-07T11:24:35.024Z,0.00
2018-04-07T11:25:35.020Z,4.00
2018-04-07T11:26:35.064Z,0.00
2018-04-07T11:27:34.960Z,4.00
2018-04-07T11:28:34.961Z,4.00
2018-04-07T11:29:34.895Z,4.00
2018-04-07T11:30:34.893Z,4.00
2018-04-07T11:31:34.932Z,4.00
2018-04-07T11:32:34.818Z,4.00
2018-04-07T11:33:34.789Z,8.00
2018-04-07T11:34:34.816Z,8.00
2018-04-07T11:35:34.767Z,8.00
2018-04-07T11:36:35.713Z,8.00
2018-04-07T11:37:35.360Z,8.00
2018-04-07T11:38:34.683Z,12.00
2018-04-07T11:39:34.809Z,8.00
2018-04-07T11:40:34.862Z,12.00
2018-04-07T11:41:34.564Z,12.00
2018-04-07T11:42:35.395Z,12.00
2018-04-07T11:43:34.595Z,12.00
2018-04-07T11:44:35.021Z,12.00
2018-04-07T11:45:34.488Z,12.00
2018-04-07T11:46:34.457Z,20.00
2018-04-07T11:47:34.435Z,16.00
2018-04-07T11:48:34.513Z,20.00
2018-04-07T11:49:34.845Z,24.00
2018-04-07T11:50:34.359Z,28.00
2018-04-07T11:51:34.725Z,28.00
2018-04-07T11:52:34.270Z,28.00
2018-04-07T11:53:34.336Z,32.00
2018-04-07T11:54:34.206Z,36.00
2018-04-07T11:55:34.186Z,40.00
2018-04-07T11:56:34.238Z,44.00
2018-04-07T11:57:34.158Z,44.00
2018-04-07T11:58:34.533Z,44.00
2018-04-07T11:59:34.131Z,40.00
2018-04-07T12:00:34.113Z,36.00
2018-04-07T12:01:34.018Z,36.00
2018-04-07T12:02:34.124Z,40.00
2018-04-07T12:03:34.057Z,44.00
2018-04-07T12:04:33.948Z,48.00
2018-04-07T12:05:34.037Z,52.00
2018-04-07T12:06:33.890Z,56.00
2018-04-07T12:07:33.853Z,60.00
2018-04-07T12:08:34.063Z,60.00
2018-04-07T12:09:34.426Z,64.00
2018-04-07T12:10:33.821Z,64.00
2018-04-07T12:11:34.365Z,68.00
2018-04-07T12:12:33.915Z,72.00
2018-04-07T12:13:33.739Z,68.00
2018-04-07T12:14:33.875Z,68.00
2018-04-07T12:15:33.653Z,72.00
2018-04-07T12:16:33.629Z,68.00
2018-04-07T12:17:33.680Z,68.00
2018-04-07T12:18:33.603Z,68.00
2018-04-07T12:19:34.017Z,68.00
2018-04-07T12:20:33.574Z,60.00
2018-04-07T12:21:33.483Z,56.00
2018-04-07T12:22:33.584Z,52.00
2018-04-07T12:23:33.411Z,52.00
2018-04-07T12:24:33.403Z,52.00
2018-04-07T12:25:33.420Z,56.00
2018-04-07T12:26:33.307Z,60.00
2018-04-07T12:27:33.303Z,60.00
2018-04-07T12:28:33.274Z,68.00
2018-04-07T12:29:33.251Z,68.00
2018-04-07T12:30:33.333Z,68.00
2018-04-07T12:31:33.204Z,76.00
2018-04-07T12:32:33.156Z,76.00
2018-04-07T12:33:33.172Z,80.00
2018-04-07T12:34:33.120Z,72.00
2018-04-07T12:35:33.184Z,76.00
2018-04-07T12:36:33.064Z,76.00
2018-04-07T12:37:33.299Z,84.00
2018-04-07T12:38:33.001Z,88.00
2018-04-07T12:39:33.048Z,92.00
2018-04-07T12:40:33.087Z,92.00
2018-04-07T12:41:32.918Z,96.00
2018-04-07T12:42:32.963Z,104.00
2018-04-07T12:43:32.868Z,104.00
2018-04-07T12:44:32.847Z,112.00
2018-04-07T12:45:32.864Z,120.00
2018-04-07T12:46:32.884Z,120.00
2018-04-07T12:47:32.732Z,124.00
2018-04-07T12:48:32.797Z,132.00
2018-04-07T12:49:32.718Z,136.00
2018-04-07T12:50:32.662Z,144.00
2018-04-07T12:51:32.760Z,148.00
2018-04-07T12:52:32.682Z,152.00
2018-04-07T12:53:32.584Z,156.00
2018-04-07T12:54:32.598Z,160.00
2018-04-07T12:55:32.649Z,164.00
2018-04-07T12:56:32.623Z,168.00
2018-04-07T12:57:32.455Z,172.00
2018-04-07T12:58:32.475Z,172.00
2018-04-07T12:59:32.421Z,176.00
2018-04-07T13:00:32.366Z,180.00
2018-04-07T13:01:32.485Z,188.00
2018-04-07T13:02:33.710Z,188.00
2018-04-07T13:03:32.317Z,196.00
2018-04-07T13:04:32.294Z,200.00
2018-04-07T13:05:32.261Z,208.00
2018-04-07T13:06:32.234Z,212.00
2018-04-07T13:07:32.183Z,220.00
2018-04-07T13:08:32.258Z,224.00
2018-04-07T13:09:32.134Z,232.00
2018-04-07T13:10:32.203Z,240.00
2018-04-07T13:11:32.114Z,244.00
2018-04-07T13:12:32.008Z,248.00
2018-04-07T13:13:32.104Z,256.00
2018-04-07T13:14:32.000Z,260.00